الصفحة الرئيسية
METAR-TAF:

METAR-TAF

مطار :

مطار انجمينا الدولي

انجمينا, تشاد

دائرة عرض: 12-08N, خط طول: 015-02E, ارتفاع: 295 متر

مراقبة الطقس الحالي

تاريخ ووقت الإصدار 21 دقيقة قبل الساعة 15:00UTC
ريح 7 عقدة من الشمال/الشمال الغربي, الاتجاه يتراوح بين الشمال/الشمال الغربي و الشمال الشرقي
درجة الحرارة 34°درجة مئوية
الرطوبة 10%
ضغط 1011 hPa
الرؤية 10 كم أو أكثر
الغيوم لا تقل 1500 م ولا وجود لمزنة ركامية السحاب الأسود

METAR: FTTJ 141500Z 33007KT 330V050 CAVOK 34/M02 Q1011 NOSIG

زمن: 16:21 (15:21 UTC)

توقعات

تاريخ ووقت الإصدار 4ساعات و 21 دقيقة قبل الساعة 11:00UTC
التوقعات صالحة من14 الساعة 12 UTC إلى 15 الساعة 18 UTC
ريح 8 عقدة من الشمال
الرؤية: 8000 متر

TAF: FTTJ 141100Z 1412/1518 36008KT 8000 NSC

أرصاد الطقس والتوقعات من أكثر من 4000 مطار (تقارير الطقس للمطار METAR والتنبؤ بالطقس بالمطارTAF).

المحطات المتاحة هي النقط الصفراء والحمراء على الخريطة.

حرك المؤشر فوق النقطة لمعرفة اسم المحطة.

ثم انقر لمعرفة أرصاد وتوقعات الطقس.

لتغيير الخارطة: اضغط على الأزرار الخضراء مع رمز الصليب الأسود للتكبير. على الزر الأخضر مع شرطة للتصغير، أو على الأسهم الخضراء للخرائط المجاورة.


METAR-TAF: